createdAt,value
2018-04-29T00:01:51.388Z,14.75
2018-04-29T00:04:20.618Z,14.65
2018-04-29T00:06:49.774Z,14.72
2018-04-29T00:09:18.973Z,14.72
2018-04-29T00:11:49.128Z,14.73
2018-04-29T00:14:18.313Z,14.62
2018-04-29T00:16:48.267Z,14.74
2018-04-29T00:19:17.451Z,14.70
2018-04-29T00:21:46.636Z,14.66
2018-04-29T00:24:15.825Z,14.52
2018-04-29T00:26:45.746Z,14.58
2018-04-29T00:29:14.906Z,14.69
2018-04-29T00:31:44.079Z,14.87
2018-04-29T00:34:13.223Z,14.64
2018-04-29T00:36:43.147Z,14.58
2018-04-29T00:39:13.066Z,14.52
2018-04-29T00:41:42.217Z,14.59
2018-04-29T00:44:11.460Z,14.55
2018-04-29T00:46:40.624Z,14.54
2018-04-29T00:49:10.581Z,14.56
2018-04-29T00:51:57.566Z,14.49
2018-04-29T00:54:26.700Z,14.81
2018-04-29T00:56:55.958Z,14.97
2018-04-29T00:59:25.109Z,14.77
2018-04-29T01:01:54.271Z,14.68
2018-04-29T01:04:24.258Z,14.94
2018-04-29T01:06:53.394Z,15.09
2018-04-29T01:09:22.575Z,15.21
2018-04-29T01:11:52.663Z,15.22
2018-04-29T01:14:22.326Z,15.19
2018-04-29T01:16:51.550Z,15.13
2018-04-29T01:19:20.721Z,14.95
2018-04-29T01:21:49.909Z,15.03
2018-04-29T01:24:19.825Z,15.15
2018-04-29T01:26:48.999Z,15.04
2018-04-29T01:29:18.185Z,14.95
2018-04-29T01:31:47.922Z,14.86
2018-04-29T01:34:17.284Z,14.73
2018-04-29T01:36:47.174Z,14.53
2018-04-29T01:39:16.301Z,14.48
2018-04-29T01:41:46.185Z,14.37
2018-04-29T01:44:15.354Z,14.31
2018-04-29T01:46:44.515Z,14.22
2018-04-29T01:49:14.395Z,14.25
2018-04-29T01:51:43.574Z,14.27
2018-04-29T01:54:13.401Z,14.09
2018-04-29T01:56:42.516Z,13.99
2018-04-29T01:59:11.644Z,13.95
2018-04-29T02:01:40.789Z,13.92
2018-04-29T02:04:09.901Z,13.94
2018-04-29T02:06:39.009Z,14.12
2018-04-29T02:09:08.891Z,14.37
2018-04-29T02:11:38.025Z,14.44
2018-04-29T02:14:07.918Z,14.58
2018-04-29T02:16:37.011Z,14.78
2018-04-29T02:19:06.123Z,14.79
2018-04-29T02:21:35.236Z,14.74
2018-04-29T02:24:05.234Z,14.53
2018-04-29T02:26:34.456Z,14.28
2018-04-29T02:29:03.576Z,14.21
2018-04-29T02:31:32.703Z,14.20
2018-04-29T02:34:01.839Z,14.13
2018-04-29T02:36:31.815Z,14.38
2018-04-29T02:39:01.025Z,14.58
2018-04-29T02:41:30.950Z,14.74
2018-04-29T02:44:00.058Z,14.43
2018-04-29T02:46:29.925Z,14.33
2018-04-29T02:48:59.044Z,14.16
2018-04-29T02:51:28.147Z,14.09
2018-04-29T02:53:57.243Z,14.41
2018-04-29T02:56:26.358Z,14.66
2018-04-29T02:58:56.685Z,14.72
2018-04-29T03:01:26.574Z,14.64
2018-04-29T03:03:55.687Z,14.61
2018-04-29T03:06:25.582Z,14.43
2018-04-29T03:08:54.674Z,14.23
2018-04-29T03:11:23.800Z,14.00
2018-04-29T03:13:53.818Z,13.83
2018-04-29T03:16:22.960Z,13.77
2018-04-29T03:18:52.853Z,13.67
2018-04-29T03:21:22.519Z,13.88
2018-04-29T03:23:51.624Z,14.09
2018-04-29T03:26:20.730Z,14.17
2018-04-29T03:28:50.618Z,14.20
2018-04-29T03:31:19.738Z,14.16
2018-04-29T03:33:49.645Z,14.29
2018-04-29T03:36:18.789Z,14.42
2018-04-29T03:38:47.888Z,14.50
2018-04-29T03:41:17.017Z,14.40
2018-04-29T03:43:46.134Z,14.43
2018-04-29T03:46:15.264Z,14.49
2018-04-29T03:48:44.368Z,14.52
2018-04-29T03:51:13.504Z,14.45
2018-04-29T03:53:42.690Z,14.57
2018-04-29T03:56:11.885Z,14.36
2018-04-29T03:58:58.739Z,14.36
2018-04-29T04:01:51.288Z,14.42
2018-04-29T04:04:14.793Z,14.44
2018-04-29T04:06:43.921Z,14.44
2018-04-29T04:09:13.040Z,14.37
2018-04-29T04:11:43.069Z,14.11
2018-04-29T04:14:12.371Z,13.97
2018-04-29T04:16:42.260Z,13.87
2018-04-29T04:19:11.351Z,13.96
2018-04-29T04:21:41.154Z,14.02
2018-04-29T04:24:11.064Z,14.17
2018-04-29T04:26:40.180Z,14.26
2018-04-29T04:29:09.278Z,14.37
2018-04-29T04:31:38.445Z,14.33
2018-04-29T04:34:07.627Z,14.38
2018-04-29T04:36:36.698Z,14.26
2018-04-29T04:39:05.844Z,14.13
2018-04-29T04:41:34.975Z,14.03
2018-04-29T04:44:04.878Z,14.22
2018-04-29T04:46:34.230Z,14.32
2018-04-29T04:49:03.398Z,14.36
2018-04-29T04:51:33.280Z,14.42
2018-04-29T04:54:02.400Z,14.56
2018-04-29T04:56:32.330Z,14.60
2018-04-29T04:59:02.458Z,14.35
2018-04-29T05:01:31.991Z,14.11
2018-04-29T05:04:01.174Z,13.94
2018-04-29T05:06:30.288Z,14.10
2018-04-29T05:08:59.436Z,14.07
2018-04-29T05:11:29.308Z,14.20
2018-04-29T05:13:58.413Z,14.06
2018-04-29T05:16:27.549Z,13.99
2018-04-29T05:18:56.839Z,13.95
2018-04-29T05:21:26.737Z,14.02
2018-04-29T05:23:56.617Z,14.10
2018-04-29T05:26:25.716Z,14.18
2018-04-29T05:28:55.607Z,14.23
2018-04-29T05:31:24.705Z,14.23
2018-04-29T05:33:54.592Z,14.26
2018-04-29T05:36:24.455Z,14.30
2018-04-29T05:38:53.667Z,14.26
2018-04-29T05:41:23.675Z,14.23
2018-04-29T05:43:52.808Z,14.31
2018-04-29T05:46:23.631Z,14.42
2018-04-29T05:48:52.751Z,14.50
2018-04-29T05:51:22.897Z,14.52
2018-04-29T05:53:52.790Z,14.76
2018-04-29T05:56:23.710Z,14.86
2018-04-29T05:58:52.819Z,14.99
2018-04-29T06:01:23.717Z,15.14
2018-04-29T06:03:53.646Z,15.10
2018-04-29T06:06:23.756Z,15.09
2018-04-29T06:08:52.875Z,15.12
2018-04-29T06:11:23.780Z,15.26
2018-04-29T06:13:53.804Z,15.21
2018-04-29T06:16:23.769Z,15.36
2018-04-29T06:18:53.637Z,15.49
2018-04-29T06:21:22.928Z,15.45
2018-04-29T06:23:52.053Z,15.55
2018-04-29T06:26:21.945Z,15.45
2018-04-29T06:28:51.106Z,15.53
2018-04-29T06:31:20.218Z,15.57
2018-04-29T06:33:49.325Z,15.70
2018-04-29T06:36:18.422Z,15.52
2018-04-29T06:38:47.545Z,15.71
2018-04-29T06:41:16.672Z,15.80
2018-04-29T06:43:46.537Z,15.90
2018-04-29T06:46:15.664Z,15.89
2018-04-29T06:48:44.785Z,15.99
2018-04-29T06:51:13.901Z,15.95
2018-04-29T06:53:42.996Z,15.93
2018-04-29T06:56:12.381Z,15.96
2018-04-29T06:58:41.527Z,16.01
2018-04-29T07:01:10.638Z,16.17
2018-04-29T07:03:39.753Z,16.27
2018-04-29T07:06:08.896Z,16.33
2018-04-29T07:08:38.025Z,16.40
2018-04-29T07:11:07.157Z,16.46
2018-04-29T07:13:37.018Z,16.48
2018-04-29T07:16:06.169Z,16.47
2018-04-29T07:18:35.312Z,16.61
2018-04-29T07:21:04.414Z,16.70
2018-04-29T07:23:33.536Z,16.66
2018-04-29T07:26:02.733Z,16.66
2018-04-29T07:28:31.871Z,16.59
2018-04-29T07:31:00.921Z,16.57
2018-04-29T07:33:30.069Z,16.60
2018-04-29T07:35:59.215Z,16.72
2018-04-29T07:38:28.345Z,16.92
2018-04-29T07:40:57.442Z,16.97
2018-04-29T07:43:26.590Z,17.02
2018-04-29T07:45:55.701Z,17.15
2018-04-29T07:48:24.849Z,17.24
2018-04-29T07:50:53.959Z,17.19
2018-04-29T07:53:24.233Z,17.33
2018-04-29T07:55:54.745Z,17.44
2018-04-29T07:58:23.881Z,17.51
2018-04-29T08:00:53.054Z,17.60
2018-04-29T08:03:23.969Z,17.72
2018-04-29T08:05:53.207Z,17.82
2018-04-29T08:08:23.168Z,17.99
2018-04-29T08:10:52.294Z,18.02
2018-04-29T08:13:21.414Z,18.02
2018-04-29T08:15:51.303Z,18.06
2018-04-29T08:18:20.416Z,18.17
2018-04-29T08:20:50.296Z,18.24
2018-04-29T08:23:19.409Z,18.31
2018-04-29T08:25:48.547Z,18.37
2018-04-29T08:28:17.653Z,18.48
2018-04-29T08:30:47.537Z,18.53
2018-04-29T08:33:17.416Z,18.51
2018-04-29T08:35:46.558Z,18.66
2018-04-29T08:38:16.445Z,18.72
2018-04-29T08:40:45.543Z,18.85
2018-04-29T08:43:14.670Z,19.02
2018-04-29T08:45:43.796Z,19.07
2018-04-29T08:48:12.957Z,19.17
2018-04-29T08:50:42.833Z,19.22
2018-04-29T08:53:11.966Z,19.35
2018-04-29T08:55:41.846Z,19.48
2018-04-29T08:58:10.997Z,19.55
2018-04-29T09:00:40.128Z,19.69
2018-04-29T09:03:09.232Z,19.81
2018-04-29T09:05:38.400Z,19.87
2018-04-29T09:08:07.829Z,19.84
2018-04-29T09:10:36.963Z,19.76
2018-04-29T09:13:06.864Z,19.92
2018-04-29T09:15:36.765Z,20.07
2018-04-29T09:18:05.919Z,20.09
2018-04-29T09:20:35.026Z,20.25
2018-04-29T09:23:04.137Z,20.33
2018-04-29T09:25:33.234Z,20.41
2018-04-29T09:28:02.684Z,20.47
2018-04-29T09:30:31.805Z,20.55
2018-04-29T09:33:00.934Z,20.70
2018-04-29T09:35:30.741Z,20.79
2018-04-29T09:38:00.633Z,20.96
2018-04-29T09:40:29.768Z,21.10
2018-04-29T09:42:58.925Z,21.18
2018-04-29T09:45:28.052Z,21.30
2018-04-29T09:47:57.197Z,21.28
2018-04-29T09:50:27.085Z,21.28
2018-04-29T09:52:56.203Z,21.35
2018-04-29T09:55:26.159Z,21.36
2018-04-29T09:57:55.225Z,21.39
2018-04-29T10:00:26.975Z,21.42
2018-04-29T10:03:01.728Z,21.44
2018-04-29T10:05:30.850Z,21.55
2018-04-29T10:07:59.943Z,21.63
2018-04-29T10:10:29.106Z,21.58
2018-04-29T10:12:58.229Z,21.67
2018-04-29T10:15:27.362Z,21.83
2018-04-29T10:17:56.472Z,21.83
2018-04-29T10:20:26.365Z,21.90
2018-04-29T10:22:55.498Z,21.97
2018-04-29T10:25:24.616Z,22.05
2018-04-29T10:27:53.759Z,22.11
2018-04-29T10:30:23.464Z,22.17
2018-04-29T10:32:52.654Z,22.37
2018-04-29T10:35:23.682Z,22.54
2018-04-29T10:37:52.792Z,22.67
2018-04-29T10:40:21.938Z,22.73
2018-04-29T10:42:51.060Z,22.87
2018-04-29T10:45:20.199Z,22.90
2018-04-29T10:47:49.331Z,23.00
2018-04-29T10:50:18.440Z,22.81
2018-04-29T10:52:47.572Z,22.76
2018-04-29T10:55:16.681Z,22.86
2018-04-29T10:57:45.824Z,22.84
2018-04-29T11:00:14.955Z,22.95
2018-04-29T11:02:44.859Z,23.13
2018-04-29T11:05:14.013Z,23.16
2018-04-29T11:07:43.921Z,23.29
2018-04-29T11:10:13.809Z,23.44
2018-04-29T11:12:43.053Z,23.55
2018-04-29T11:15:12.153Z,23.53
2018-04-29T11:17:41.265Z,23.59
2018-04-29T11:20:10.376Z,23.62
2018-04-29T11:22:39.508Z,23.77
2018-04-29T11:25:09.381Z,23.93
2018-04-29T11:27:38.502Z,23.85
2018-04-29T11:30:07.614Z,23.95
2018-04-29T11:32:37.497Z,23.83
2018-04-29T11:35:06.647Z,23.93
2018-04-29T11:37:35.787Z,24.02
2018-04-29T11:40:04.941Z,24.13
2018-04-29T11:42:34.045Z,24.18
2018-04-29T11:45:03.193Z,24.30
2018-04-29T11:47:32.338Z,24.33
2018-04-29T11:50:01.472Z,24.43
2018-04-29T11:52:30.567Z,24.65
2018-04-29T11:54:59.709Z,24.87
2018-04-29T11:57:28.840Z,25.05
2018-04-29T11:59:58.208Z,25.15
2018-04-29T12:02:28.135Z,25.26
2018-04-29T12:04:58.014Z,25.38
2018-04-29T12:07:27.150Z,25.30
2018-04-29T12:09:56.255Z,25.37
2018-04-29T12:12:25.349Z,25.50
2018-04-29T12:14:54.536Z,25.64
2018-04-29T12:17:24.401Z,25.67
2018-04-29T12:19:53.510Z,25.73
2018-04-29T12:22:23.672Z,25.91
2018-04-29T12:24:53.547Z,26.12
2018-04-29T12:27:23.665Z,26.20
2018-04-29T12:29:52.767Z,26.28
2018-04-29T12:32:21.882Z,26.46
2018-04-29T12:34:52.374Z,26.50
2018-04-29T12:37:21.497Z,26.66
2018-04-29T12:39:51.470Z,26.69
2018-04-29T12:42:21.391Z,26.88
2018-04-29T12:44:51.307Z,26.99
2018-04-29T12:47:20.411Z,26.88
2018-04-29T12:49:49.534Z,26.79
2018-04-29T12:52:19.490Z,26.78
2018-04-29T12:54:49.082Z,26.72
2018-04-29T12:57:18.216Z,26.81
2018-04-29T12:59:47.324Z,26.88
2018-04-29T13:02:16.441Z,27.06
2018-04-29T13:04:45.566Z,27.16
2018-04-29T13:07:14.718Z,27.31
2018-04-29T13:09:43.840Z,27.47
2018-04-29T13:12:12.956Z,27.63
2018-04-29T13:14:42.861Z,27.69
2018-04-29T13:17:11.969Z,27.80
2018-04-29T13:19:41.843Z,27.92
2018-04-29T13:22:10.983Z,27.90
2018-04-29T13:24:40.134Z,27.80
2018-04-29T13:27:09.245Z,27.89
2018-04-29T13:29:38.419Z,27.81
2018-04-29T13:32:07.535Z,27.66
2018-04-29T13:34:36.677Z,27.79
2018-04-29T13:37:05.789Z,27.91
2018-04-29T13:39:34.873Z,28.00
2018-04-29T13:42:04.027Z,28.01
2018-04-29T13:44:33.115Z,28.17
2018-04-29T13:47:02.229Z,28.37
2018-04-29T13:49:32.116Z,28.63
2018-04-29T13:52:01.245Z,28.82
2018-04-29T13:54:31.112Z,28.90
2018-04-29T13:57:00.238Z,29.06
2018-04-29T13:59:29.339Z,29.06
2018-04-29T14:01:59.243Z,29.14
2018-04-29T14:04:29.124Z,29.04
2018-04-29T14:06:58.254Z,28.95
2018-04-29T14:09:27.368Z,28.86
2018-04-29T14:11:57.266Z,28.79
2018-04-29T14:14:26.394Z,28.65
2018-04-29T14:16:55.512Z,28.60
2018-04-29T14:19:24.637Z,28.34
2018-04-29T14:21:53.777Z,28.37
2018-04-29T14:24:23.835Z,28.20
2018-04-29T14:26:52.939Z,28.20
2018-04-29T14:29:22.084Z,28.06
2018-04-29T14:31:51.955Z,28.14
2018-04-29T14:34:21.063Z,28.19
2018-04-29T14:36:50.188Z,28.15
2018-04-29T14:39:20.078Z,28.17
2018-04-29T14:41:49.201Z,28.30
2018-04-29T14:44:19.095Z,28.33
2018-04-29T14:46:48.225Z,28.54
2018-04-29T14:49:17.396Z,28.46
2018-04-29T14:51:46.447Z,28.73
2018-04-29T14:54:16.355Z,28.93
2018-04-29T14:56:45.441Z,29.11
2018-04-29T14:59:14.574Z,29.03
2018-04-29T15:01:43.713Z,28.97
2018-04-29T15:04:13.617Z,28.80
2018-04-29T15:06:42.766Z,28.45
2018-04-29T15:09:11.892Z,28.23
2018-04-29T15:11:41.035Z,28.17
2018-04-29T15:14:10.158Z,27.92
2018-04-29T15:16:39.274Z,27.86
2018-04-29T15:19:08.399Z,27.90
2018-04-29T15:21:37.524Z,28.07
2018-04-29T15:24:06.676Z,28.14
2018-04-29T15:26:35.758Z,28.20
2018-04-29T15:29:04.884Z,28.36
2018-04-29T15:31:34.778Z,28.36
2018-04-29T15:34:03.896Z,28.55
2018-04-29T15:36:33.778Z,28.53
2018-04-29T15:39:02.933Z,28.61
2018-04-29T15:41:32.054Z,28.72
2018-04-29T15:44:01.176Z,28.58
2018-04-29T15:46:30.352Z,28.72
2018-04-29T15:49:00.204Z,28.74
2018-04-29T15:51:29.345Z,28.69
2018-04-29T15:53:58.461Z,28.38
2018-04-29T15:56:27.574Z,28.46
2018-04-29T15:58:56.672Z,28.69
2018-04-29T16:01:25.799Z,28.73
2018-04-29T16:03:55.687Z,28.65
2018-04-29T16:06:24.795Z,28.34
2018-04-29T16:08:55.175Z,28.51
2018-04-29T16:11:24.280Z,28.61
2018-04-29T16:13:53.423Z,28.60
2018-04-29T16:16:22.548Z,28.58
2018-04-29T16:18:51.636Z,28.48
2018-04-29T16:21:20.764Z,28.49
2018-04-29T16:23:50.713Z,28.37
2018-04-29T16:26:19.801Z,28.26
2018-04-29T16:28:48.941Z,28.22
2018-04-29T16:31:18.059Z,28.11
2018-04-29T16:33:47.192Z,28.03
2018-04-29T16:36:16.417Z,27.98
2018-04-29T16:38:45.493Z,27.93
2018-04-29T16:41:14.617Z,27.87
2018-04-29T16:43:44.498Z,27.80
2018-04-29T16:46:13.608Z,27.77
2018-04-29T16:48:43.529Z,27.67
2018-04-29T16:51:13.429Z,27.62
2018-04-29T16:53:42.554Z,27.48
2018-04-29T16:56:12.672Z,27.40
2018-04-29T16:58:41.823Z,27.31
2018-04-29T17:01:11.019Z,27.25
2018-04-29T17:03:40.860Z,27.21
2018-04-29T17:06:10.002Z,27.15
2018-04-29T17:08:39.162Z,27.13
2018-04-29T17:11:09.095Z,27.04
2018-04-29T17:13:38.974Z,26.98
2018-04-29T17:16:08.144Z,26.96
2018-04-29T17:18:38.043Z,26.92
2018-04-29T17:21:07.189Z,26.91
2018-04-29T17:23:36.305Z,26.84
2018-04-29T17:26:06.190Z,26.77
2018-04-29T17:28:35.647Z,26.69
2018-04-29T17:31:04.774Z,26.55
2018-04-29T17:33:33.906Z,26.48
2018-04-29T17:36:03.058Z,26.38
2018-04-29T17:38:32.182Z,26.21
2018-04-29T17:41:01.333Z,26.18
2018-04-29T17:43:30.475Z,26.10
2018-04-29T17:45:59.590Z,26.11
2018-04-29T17:48:28.721Z,26.05
2018-04-29T17:50:57.847Z,25.99
2018-04-29T17:53:27.010Z,25.91
2018-04-29T17:55:56.134Z,25.83
2018-04-29T17:58:25.300Z,25.79
2018-04-29T18:00:54.443Z,25.72
2018-04-29T18:03:24.402Z,25.68
2018-04-29T18:05:54.303Z,25.57
2018-04-29T18:08:24.362Z,25.39
2018-04-29T18:10:53.486Z,25.29
2018-04-29T18:13:22.616Z,25.14
2018-04-29T18:15:52.544Z,25.08
2018-04-29T18:18:22.425Z,25.04
2018-04-29T18:20:51.566Z,25.03
2018-04-29T18:23:20.679Z,25.03
2018-04-29T18:25:49.841Z,25.07
2018-04-29T18:28:20.075Z,25.05
2018-04-29T18:30:49.990Z,25.02
2018-04-29T18:33:19.911Z,24.97
2018-04-29T18:35:49.029Z,24.84
2018-04-29T18:38:18.156Z,24.72
2018-04-29T18:40:47.325Z,24.65
2018-04-29T18:43:16.452Z,24.61
2018-04-29T18:45:45.587Z,24.53
2018-04-29T18:48:14.716Z,24.50
2018-04-29T18:50:44.070Z,24.49
2018-04-29T18:53:13.886Z,24.49
2018-04-29T18:55:43.810Z,24.46
2018-04-29T18:58:15.243Z,24.49
2018-04-29T19:00:45.125Z,24.46
2018-04-29T19:03:14.265Z,24.40
2018-04-29T19:05:48.027Z,24.33
2018-04-29T19:08:17.165Z,24.33
2018-04-29T19:10:47.081Z,24.41
2018-04-29T19:13:16.214Z,24.47
2018-04-29T19:15:45.949Z,24.52
2018-04-29T19:18:15.095Z,24.48
2018-04-29T19:20:44.974Z,24.46
2018-04-29T19:23:14.125Z,24.51
2018-04-29T19:25:43.263Z,24.44
2018-04-29T19:28:12.413Z,24.45
2018-04-29T19:30:42.500Z,24.35
2018-04-29T19:33:11.612Z,24.27
2018-04-29T19:35:41.538Z,24.20
2018-04-29T19:38:10.659Z,24.09
2018-04-29T19:40:39.780Z,23.99
2018-04-29T19:43:08.954Z,23.93
2018-04-29T19:45:38.104Z,23.92
2018-04-29T19:48:07.212Z,23.87
2018-04-29T19:50:37.116Z,23.84
2018-04-29T19:53:06.989Z,23.80
2018-04-29T19:55:36.158Z,23.76
2018-04-29T19:58:05.253Z,23.74
2018-04-29T20:00:34.424Z,23.70
2018-04-29T20:03:04.322Z,23.68
2018-04-29T20:05:33.489Z,23.63
2018-04-29T20:08:02.631Z,23.66
2018-04-29T20:10:31.794Z,23.71
2018-04-29T20:13:00.978Z,23.68
2018-04-29T20:15:30.117Z,23.60
2018-04-29T20:17:59.252Z,23.53
2018-04-29T20:20:28.364Z,23.45
2018-04-29T20:22:57.542Z,23.43
2018-04-29T20:25:26.692Z,23.39
2018-04-29T20:27:55.826Z,23.37
2018-04-29T20:30:25.734Z,23.36
2018-04-29T20:32:55.632Z,23.37
2018-04-29T20:35:24.764Z,23.34
2018-04-29T20:37:54.109Z,23.34
2018-04-29T20:40:24.487Z,23.27
2018-04-29T20:42:53.637Z,23.22
2018-04-29T20:45:22.732Z,23.27
2018-04-29T20:47:51.876Z,23.31
2018-04-29T20:50:21.773Z,23.32
2018-04-29T20:52:51.660Z,23.32
2018-04-29T20:55:21.157Z,23.29
2018-04-29T20:57:50.273Z,23.32
2018-04-29T21:00:19.381Z,23.27
2018-04-29T21:02:49.279Z,23.21
2018-04-29T21:05:19.187Z,23.24
2018-04-29T21:07:48.321Z,23.18
2018-04-29T21:10:18.256Z,23.13
2018-04-29T21:12:47.381Z,23.04
2018-04-29T21:15:16.481Z,23.04
2018-04-29T21:17:46.396Z,22.97
2018-04-29T21:20:15.517Z,22.77
2018-04-29T21:22:44.625Z,22.64
2018-04-29T21:25:14.519Z,22.68
2018-04-29T21:27:43.672Z,22.62
2018-04-29T21:30:12.797Z,22.63
2018-04-29T21:32:42.707Z,22.65
2018-04-29T21:35:11.847Z,22.59
2018-04-29T21:37:40.975Z,22.54
2018-04-29T21:40:10.127Z,22.45
2018-04-29T21:42:39.232Z,22.37
2018-04-29T21:45:09.136Z,22.30
2018-04-29T21:47:38.257Z,22.17
2018-04-29T21:50:08.148Z,21.95
2018-04-29T21:52:37.241Z,21.81
2018-04-29T21:55:06.357Z,21.74
2018-04-29T21:57:36.266Z,21.68
2018-04-29T22:00:06.208Z,21.74
2018-04-29T22:02:35.315Z,21.75
2018-04-29T22:05:04.449Z,21.76
2018-04-29T22:07:33.581Z,21.81
2018-04-29T22:10:02.706Z,21.84
2018-04-29T22:12:31.829Z,21.90
2018-04-29T22:15:00.954Z,21.87
2018-04-29T22:17:30.862Z,21.77
2018-04-29T22:19:59.960Z,21.69
2018-04-29T22:22:29.835Z,21.23
2018-04-29T22:24:58.984Z,21.05
2018-04-29T22:27:28.862Z,20.99
2018-04-29T22:29:57.970Z,20.81
2018-04-29T22:32:27.321Z,20.76
2018-04-29T22:34:56.461Z,20.75
2018-04-29T22:37:25.631Z,20.65
2018-04-29T22:39:54.754Z,20.58
2018-04-29T22:42:24.842Z,20.55
2018-04-29T22:44:53.952Z,20.44
2018-04-29T22:47:23.072Z,20.42
2018-04-29T22:49:52.196Z,20.31
2018-04-29T22:52:22.077Z,20.24
2018-04-29T22:54:51.188Z,20.11
2018-04-29T22:57:20.331Z,19.96
2018-04-29T22:59:49.480Z,19.89
2018-04-29T23:02:18.596Z,19.78
2018-04-29T23:04:48.500Z,19.77
2018-04-29T23:07:17.616Z,19.71
2018-04-29T23:09:47.472Z,19.66
2018-04-29T23:12:16.593Z,19.54
2018-04-29T23:14:45.688Z,19.48
2018-04-29T23:17:14.808Z,19.36
2018-04-29T23:19:44.706Z,19.17
2018-04-29T23:22:13.812Z,19.07
2018-04-29T23:24:43.696Z,18.89
2018-04-29T23:27:12.816Z,18.76
2018-04-29T23:29:41.902Z,18.65
2018-04-29T23:32:10.997Z,18.58
2018-04-29T23:34:40.884Z,18.41
2018-04-29T23:37:09.980Z,18.36
2018-04-29T23:39:39.101Z,18.33
2018-04-29T23:42:08.207Z,18.26
2018-04-29T23:44:37.496Z,18.24
2018-04-29T23:47:06.607Z,18.23
2018-04-29T23:49:35.722Z,18.16
2018-04-29T23:52:05.606Z,18.14
2018-04-29T23:54:34.733Z,18.07
2018-04-29T23:57:04.620Z,18.07
2018-04-29T23:59:33.745Z,17.98
